Welby, Colorado
Current Conditions -  °F | °C
As of 4:47 PM on Monday 22 Dec 2014 (Local Time) from KBJC Reporting Station
Rain Showers Rain Showers  
Wind Chill: 23°   Ceiling: 7000
Heat Index: 32°   Visibility: 10mi
Dew Point: 27°   Wind: 12mph
Humidity: 80%   Direction: 310°NW
Pressure: 29.73"   Gusts: 16mph
Location:  39.8532°N, 104.959°W
Report Text: KBJC 222347Z 31010G14KT 10SM VCSH SCT050 OVC070 00/M03 A2973
Loading
Personal Weather Stations






























Interactive Weather Map New forecast layout! Learn more

10-Day Weather Forecast

Advertisements
Track Severe Weather on mobile